Time,TemperatureF,DewpointF,PressureIn,WindDirection,WindDirectionDegrees,WindSpeedMPH,WindSpeedGustMPH,Humidity,HourlyPrecipIn,Conditions,Clouds,dailyrainin,SoftwareType,DateUTC
2013-01-31 00:00:00,41.9,33.5,29.79,West,271,11.0,27.0,72,0.01,,---,0.01,VWS V14.01,2013-01-31 05:00:00,
2013-01-31 00:30:00,40.9,33.3,29.80,West,263,13.0,24.0,74,0.00,,---,0.01,VWS V14.01,2013-01-31 05:30:00,
2013-01-31 00:40:00,43.0,37.9,29.74,West,269,14.0,21.0,82,0.00,,---,2.46,VWS V14.01,2013-01-31 05:40:00,
2013-01-31 00:41:00,42.1,34.8,29.77,West,271,11.0,21.0,75,0.01,,---,0.01,VWS V14.01,2013-01-31 05:41:00,
2013-01-31 00:46:00,42.0,34.3,29.78,West,269,7.0,21.0,74,0.01,,---,0.01,VWS V14.01,2013-01-31 05:46:00,
2013-01-31 00:51:00,42.0,34.3,29.78,WSW,249,7.0,21.0,74,0.01,,---,0.01,VWS V14.01,2013-01-31 05:51:00,
2013-01-31 00:56:00,42.0,34.3,29.78,West,269,6.0,21.0,74,0.01,,---,0.01,VWS V14.01,2013-01-31 05:56:00,
2013-01-31 01:01:00,41.9,34.2,29.79,West,267,15.0,27.0,74,0.01,,---,0.01,VWS V14.01,2013-01-31 06:01:00,
2013-01-31 01:06:00,41.9,33.9,29.80,West,275,6.0,13.0,73,0.00,,---,0.01,VWS V14.01,2013-01-31 06:06:00,
2013-01-31 01:11:00,41.8,34.1,29.80,WSW,248,6.0,18.0,74,0.00,,---,0.01,VWS V14.01,2013-01-31 06:11:00,
2013-01-31 01:16:00,41.7,34.0,29.80,West,270,7.0,23.0,74,0.00,,---,0.01,VWS V14.01,2013-01-31 06:16:00,
2013-01-31 01:21:00,41.4,34.1,29.80,West,281,14.0,24.0,75,0.00,,---,0.01,VWS V14.01,2013-01-31 06:21:00,
2013-01-31 01:26:00,41.2,33.9,29.80,West,281,5.0,24.0,75,0.00,,---,0.01,VWS V14.01,2013-01-31 06:26:00,
2013-01-31 01:31:00,41.0,34.0,29.80,WNW,288,3.0,24.0,76,0.00,,---,0.01,VWS V14.01,2013-01-31 06:31:00,
2013-01-31 01:36:00,40.9,33.6,29.80,West,278,11.0,21.0,75,0.00,,---,0.01,VWS V14.01,2013-01-31 06:36:00,
2013-01-31 01:41:00,40.7,32.7,29.80,West,261,15.0,21.0,73,0.00,,---,0.01,VWS V14.01,2013-01-31 06:41:00,
2013-01-31 01:46:00,40.6,32.0,29.81,WSW,249,5.0,31.0,71,0.00,,---,0.01,VWS V14.01,2013-01-31 06:46:00,
2013-01-31 01:48:00,40.3,32.0,29.82,West,260,10.0,31.0,72,0.00,,---,0.01,VWS V14.01,2013-01-31 06:48:00,
2013-01-31 01:51:00,40.4,31.8,29.82,West,275,5.0,31.0,71,0.00,,---,0.01,VWS V14.01,2013-01-31 06:51:00,
2013-01-31 02:00:00,37.5,28.6,29.88,West,268,4.0,31.0,70,0.00,,---,0.01,VWS V14.01,2013-01-31 07:00:00,
2013-01-31 02:44:00,40.3,32.0,29.82,West,261,7.0,31.0,72,0.00,,---,0.01,VWS V14.01,2013-01-31 07:44:00,
2013-01-31 02:49:00,37.8,28.2,29.87,West,274,10.0,31.0,68,0.00,,---,0.01,VWS V14.01,2013-01-31 07:49:00,
2013-01-31 02:54:00,37.6,28.0,29.87,West,273,9.0,31.0,68,0.00,,---,0.01,VWS V14.01,2013-01-31 07:54:00,
2013-01-31 02:59:00,37.6,28.0,29.87,West,260,3.0,31.0,68,0.00,,---,0.01,VWS V14.01,2013-01-31 07:59:00,
2013-01-31 03:00:00,37.0,27.1,29.91,West,280,9.0,22.0,67,0.00,,---,0.01,VWS V14.01,2013-01-31 08:00:00,
2013-01-31 03:04:00,37.5,28.3,29.88,West,269,2.0,5.0,69,0.00,,---,0.01,VWS V14.01,2013-01-31 08:04:00,
2013-01-31 03:09:00,37.5,27.5,29.88,West,281,5.0,16.0,67,0.00,,---,0.01,VWS V14.01,2013-01-31 08:09:00,
2013-01-31 03:14:00,37.5,27.5,29.88,West,261,12.0,22.0,67,0.00,,---,0.01,VWS V14.01,2013-01-31 08:14:00,
2013-01-31 03:46:00,37.5,27.2,29.89,West,275,4.0,22.0,66,0.00,,---,0.01,VWS V14.01,2013-01-31 08:46:00,
2013-01-31 03:51:00,37.1,27.2,29.90,West,269,3.0,22.0,67,0.00,,---,0.01,VWS V14.01,2013-01-31 08:51:00,
2013-01-31 03:56:00,37.0,27.1,29.91,SW,232,4.0,22.0,67,0.00,,---,0.01,VWS V14.01,2013-01-31 08:56:00,
2013-01-31 04:00:00,36.7,27.5,29.92,West,271,5.0,17.0,69,0.00,,---,0.01,VWS V14.01,2013-01-31 09:00:00,
2013-01-31 04:01:00,37.0,26.7,29.90,WNW,283,7.0,22.0,66,0.00,,---,0.01,VWS V14.01,2013-01-31 09:01:00,
2013-01-31 04:06:00,37.0,27.1,29.90,West,268,7.0,15.0,67,0.00,,---,0.01,VWS V14.01,2013-01-31 09:06:00,
2013-01-31 04:11:00,36.9,27.0,29.90,West,261,14.0,17.0,67,0.00,,---,0.01,VWS V14.01,2013-01-31 09:11:00,
2013-01-31 04:16:00,36.9,27.0,29.90,West,270,9.0,17.0,67,0.00,,---,0.01,VWS V14.01,2013-01-31 09:16:00,
2013-01-31 04:30:00,36.5,27.7,29.94,West,264,6.0,18.0,70,0.00,,---,0.01,VWS V14.01,2013-01-31 09:30:00,
2013-01-31 04:39:00,36.9,27.0,29.90,West,271,10.0,17.0,67,0.00,,---,0.01,VWS V14.01,2013-01-31 09:39:00,
2013-01-31 04:44:00,36.7,27.5,29.91,West,269,4.0,17.0,69,0.00,,---,0.01,VWS V14.01,2013-01-31 09:44:00,
2013-01-31 04:49:00,36.7,27.1,29.91,West,269,7.0,17.0,68,0.00,,---,0.01,VWS V14.01,2013-01-31 09:49:00,
2013-01-31 04:54:00,36.7,27.5,29.92,West,270,5.0,17.0,69,0.00,,---,0.01,VWS V14.01,2013-01-31 09:54:00,
2013-01-31 04:59:00,36.7,27.5,29.92,West,263,6.0,17.0,69,0.00,,---,0.01,VWS V14.01,2013-01-31 09:59:00,
2013-01-31 05:00:00,36.3,26.4,29.95,West,263,16.0,20.0,67,0.00,,---,0.01,VWS V14.01,2013-01-31 10:00:00,
2013-01-31 05:04:00,36.7,27.5,29.92,West,271,4.0,6.0,69,0.00,,---,0.01,VWS V14.01,2013-01-31 10:04:00,
2013-01-31 05:09:00,36.7,27.5,29.92,West,267,2.0,14.0,69,0.00,,---,0.01,VWS V14.01,2013-01-31 10:09:00,
2013-01-31 05:14:00,36.6,27.8,29.92,West,272,5.0,14.0,70,0.00,,---,0.01,VWS V14.01,2013-01-31 10:14:00,
2013-01-31 05:19:00,36.6,27.4,29.93,West,264,5.0,14.0,69,0.00,,---,0.01,VWS V14.01,2013-01-31 10:19:00,
2013-01-31 05:24:00,36.6,27.8,29.93,West,265,12.0,14.0,70,0.00,,---,0.01,VWS V14.01,2013-01-31 10:24:00,
2013-01-31 05:29:00,36.6,27.8,29.93,West,273,6.0,14.0,70,0.00,,---,0.01,VWS V14.01,2013-01-31 10:29:00,
2013-01-31 05:30:00,35.7,25.8,29.98,WNW,288,9.0,19.0,67,0.00,,---,0.01,VWS V14.01,2013-01-31 10:30:00,
2013-01-31 05:34:00,36.5,27.7,29.94,West,266,15.0,15.0,70,0.00,,---,0.01,VWS V14.01,2013-01-31 10:34:00,
2013-01-31 05:39:00,36.5,27.0,29.94,WNW,283,3.0,19.0,68,0.00,,---,0.01,VWS V14.01,2013-01-31 10:39:00,
2013-01-31 05:44:00,36.4,26.5,29.95,West,269,9.0,19.0,67,0.00,,---,0.01,VWS V14.01,2013-01-31 10:44:00,
2013-01-31 05:49:00,36.3,27.1,29.95,West,263,10.0,19.0,69,0.00,,---,0.01,VWS V14.01,2013-01-31 10:49:00,
2013-01-31 05:54:00,36.3,27.1,29.95,West,267,12.0,19.0,69,0.00,,---,0.01,VWS V14.01,2013-01-31 10:54:00,
2013-01-31 05:59:00,36.3,26.8,29.95,West,259,20.0,20.0,68,0.00,,---,0.01,VWS V14.01,2013-01-31 10:59:00,
2013-01-31 06:00:00,35.2,25.0,29.99,WSW,257,2.0,19.0,66,0.00,,---,0.01,VWS V14.01,2013-01-31 11:00:00,
2013-01-31 06:04:00,36.3,26.4,29.96,West,272,16.0,16.0,67,0.00,,---,0.01,VWS V14.01,2013-01-31 11:04:00,
2013-01-31 06:09:00,36.1,26.2,29.96,West,271,12.0,16.0,67,0.00,,---,0.01,VWS V14.01,2013-01-31 11:09:00,
2013-01-31 06:14:00,36.0,26.1,29.96,West,268,12.0,17.0,67,0.00,,---,0.01,VWS V14.01,2013-01-31 11:14:00,
2013-01-31 06:19:00,35.9,26.0,29.97,West,259,19.0,19.0,67,0.00,,---,0.01,VWS V14.01,2013-01-31 11:19:00,
2013-01-31 06:24:00,35.8,25.6,29.97,West,263,7.0,19.0,66,0.00,,---,0.01,VWS V14.01,2013-01-31 11:24:00,
2013-01-31 06:29:00,35.8,25.6,29.98,West,267,3.0,19.0,66,0.00,,---,0.01,VWS V14.01,2013-01-31 11:29:00,
2013-01-31 06:30:00,34.9,25.8,30.00,West,268,5.0,14.0,69,0.00,,---,0.01,VWS V14.01,2013-01-31 11:30:00,
2013-01-31 06:34:00,35.7,25.8,29.98,WNW,283,7.0,9.0,67,0.00,,---,0.01,VWS V14.01,2013-01-31 11:34:00,
2013-01-31 06:39:00,35.6,25.7,29.98,West,276,5.0,12.0,67,0.00,,---,0.01,VWS V14.01,2013-01-31 11:39:00,
2013-01-31 06:44:00,35.6,25.4,29.98,West,267,7.0,19.0,66,0.00,,---,0.01,VWS V14.01,2013-01-31 11:44:00,
2013-01-31 06:49:00,35.4,25.2,29.98,WNW,283,4.0,19.0,66,0.00,,---,0.01,VWS V14.01,2013-01-31 11:49:00,
2013-01-31 06:54:00,35.3,25.5,29.98,West,272,7.0,19.0,67,0.00,,---,0.01,VWS V14.01,2013-01-31 11:54:00,
2013-01-31 06:59:00,35.3,25.1,29.99,West,279,4.0,19.0,66,0.00,,---,0.01,VWS V14.01,2013-01-31 11:59:00,
2013-01-31 07:04:00,35.2,25.0,29.99,WSW,258,4.0,4.0,66,0.00,,---,0.01,VWS V14.01,2013-01-31 12:04:00,
2013-01-31 07:09:00,35.2,25.4,29.99,West,267,7.0,12.0,67,0.00,,---,0.01,VWS V14.01,2013-01-31 12:09:00,
2013-01-31 07:14:00,35.1,25.3,29.99,West,267,3.0,12.0,67,0.00,,---,0.01,VWS V14.01,2013-01-31 12:14:00,
2013-01-31 07:19:00,35.0,25.5,29.99,West,269,4.0,12.0,68,0.00,,---,0.01,VWS V14.01,2013-01-31 12:19:00,
2013-01-31 07:24:00,35.0,25.5,29.99,West,276,10.0,13.0,68,0.00,,---,0.01,VWS V14.01,2013-01-31 12:24:00,
2013-01-31 07:29:00,34.9,25.8,29.99,West,272,6.0,13.0,69,0.00,,---,0.01,VWS V14.01,2013-01-31 12:29:00,
2013-01-31 07:30:00,35.4,26.6,30.02,West,263,8.0,21.0,70,0.00,,---,0.01,VWS V14.01,2013-01-31 12:30:00,
2013-01-31 07:34:00,34.9,25.8,30.00,West,268,4.0,5.0,69,0.00,,---,0.01,VWS V14.01,2013-01-31 12:34:00,
2013-01-31 07:39:00,34.9,25.8,30.00,West,264,3.0,11.0,69,0.00,,---,0.01,VWS V14.01,2013-01-31 12:39:00,
2013-01-31 07:44:00,34.9,25.8,30.00,West,265,3.0,12.0,69,0.00,,---,0.01,VWS V14.01,2013-01-31 12:44:00,
2013-01-31 07:49:00,34.9,26.1,30.00,West,266,4.0,12.0,70,0.00,,---,0.01,VWS V14.01,2013-01-31 12:49:00,
2013-01-31 07:54:00,34.8,26.4,30.00,West,268,2.0,12.0,71,0.00,,---,0.01,VWS V14.01,2013-01-31 12:54:00,
2013-01-31 08:00:00,35.7,26.9,30.02,West,274,5.0,19.0,70,0.00,,---,0.01,VWS V14.01,2013-01-31 13:00:00,
2013-01-31 08:19:00,35.2,26.8,30.01,West,262,12.0,13.0,71,0.00,,---,0.01,VWS V14.01,2013-01-31 13:19:00,
2013-01-31 08:24:00,35.3,26.5,30.02,West,273,5.0,19.0,70,0.00,,---,0.01,VWS V14.01,2013-01-31 13:24:00,
2013-01-31 08:29:00,35.4,26.6,30.02,West,265,9.0,21.0,70,0.00,,---,0.01,VWS V14.01,2013-01-31 13:29:00,
2013-01-31 08:30:00,36.3,26.8,30.04,South,186,10.0,22.0,68,0.00,,---,0.01,VWS V14.01,2013-01-31 13:30:00,
2013-01-31 08:34:00,35.4,26.6,30.02,West,265,7.0,9.0,70,0.00,,---,0.01,VWS V14.01,2013-01-31 13:34:00,
2013-01-31 08:39:00,35.5,26.7,30.02,West,275,5.0,18.0,70,0.00,,---,0.01,VWS V14.01,2013-01-31 13:39:00,
2013-01-31 08:44:00,35.6,27.1,30.03,WSW,254,5.0,18.0,71,0.00,,---,0.01,VWS V14.01,2013-01-31 13:44:00,
2013-01-31 08:49:00,35.9,27.4,30.03,WSW,256,10.0,18.0,71,0.00,,---,0.01,VWS V14.01,2013-01-31 13:49:00,
2013-01-31 08:54:00,35.8,27.0,30.03,West,275,15.0,18.0,70,0.00,,---,0.01,VWS V14.01,2013-01-31 13:54:00,
2013-01-31 08:59:00,35.8,27.3,30.02,West,269,7.0,18.0,71,0.00,,---,0.01,VWS V14.01,2013-01-31 13:59:00,
2013-01-31 09:00:00,37.4,27.1,30.05,West,276,14.0,20.0,66,0.00,,---,0.01,VWS V14.01,2013-01-31 14:00:00,
2013-01-31 09:04:00,35.7,26.9,30.03,West,273,10.0,11.0,70,0.00,,---,0.01,VWS V14.01,2013-01-31 14:04:00,
2013-01-31 09:09:00,36.1,27.3,30.02,WSW,258,11.0,15.0,70,0.00,,---,0.01,VWS V14.01,2013-01-31 14:09:00,
2013-01-31 09:14:00,35.8,26.3,30.03,West,275,6.0,22.0,68,0.00,,---,0.01,VWS V14.01,2013-01-31 14:14:00,
2013-01-31 09:19:00,36.1,26.6,30.03,West,265,11.0,22.0,68,0.00,,---,0.01,VWS V14.01,2013-01-31 14:19:00,
2013-01-31 09:24:00,36.2,26.7,30.03,WNW,298,4.0,22.0,68,0.00,,---,0.01,VWS V14.01,2013-01-31 14:24:00,
2013-01-31 09:29:00,36.3,26.8,30.03,West,269,14.0,22.0,68,0.00,,---,0.01,VWS V14.01,2013-01-31 14:29:00,
2013-01-31 09:30:00,38.3,27.6,30.06,West,263,9.0,24.0,65,0.00,,---,0.01,VWS V14.01,2013-01-31 14:30:00,
2013-01-31 09:34:00,36.3,26.8,30.03,West,265,10.0,11.0,68,0.00,,---,0.01,VWS V14.01,2013-01-31 14:34:00,
2013-01-31 09:39:00,36.3,26.8,30.04,WSW,254,14.0,19.0,68,0.00,,---,0.01,VWS V14.01,2013-01-31 14:39:00,
2013-01-31 09:44:00,36.5,26.6,30.04,West,266,9.0,19.0,67,0.00,,---,0.01,VWS V14.01,2013-01-31 14:44:00,
2013-01-31 09:49:00,36.3,26.4,30.05,West,273,10.0,19.0,67,0.00,,---,0.01,VWS V14.01,2013-01-31 14:49:00,
2013-01-31 09:54:00,36.6,27.0,30.04,West,269,8.0,20.0,68,0.00,,---,0.01,VWS V14.01,2013-01-31 14:54:00,
2013-01-31 09:59:00,37.2,27.3,30.04,West,267,12.0,20.0,67,0.00,,---,0.01,VWS V14.01,2013-01-31 14:59:00,
2013-01-31 10:00:00,39.2,28.1,30.07,West,265,7.0,20.0,64,0.00,,---,0.01,VWS V14.01,2013-01-31 15:00:00,
2013-01-31 10:04:00,37.4,27.1,30.05,West,263,9.0,14.0,66,0.00,,---,0.01,VWS V14.01,2013-01-31 15:04:00,
2013-01-31 10:09:00,37.4,27.1,30.05,WSW,246,7.0,18.0,66,0.00,,---,0.01,VWS V14.01,2013-01-31 15:09:00,
2013-01-31 10:14:00,37.3,27.0,30.05,West,265,12.0,24.0,66,0.00,,---,0.01,VWS V14.01,2013-01-31 15:14:00,
2013-01-31 10:19:00,37.2,26.5,30.05,West,261,9.0,24.0,65,0.00,,---,0.01,VWS V14.01,2013-01-31 15:19:00,
2013-01-31 10:24:00,37.2,26.9,30.06,West,269,12.0,24.0,66,0.00,,---,0.01,VWS V14.01,2013-01-31 15:24:00,
2013-01-31 10:29:00,37.6,27.3,30.06,West,263,8.0,24.0,66,0.00,,---,0.01,VWS V14.01,2013-01-31 15:29:00,
2013-01-31 10:34:00,38.3,27.6,30.06,West,277,10.0,10.0,65,0.00,,---,0.01,VWS V14.01,2013-01-31 15:34:00,
2013-01-31 10:39:00,38.7,27.6,30.06,West,267,6.0,14.0,64,0.00,,---,0.01,VWS V14.01,2013-01-31 15:39:00,
2013-01-31 10:44:00,38.8,27.3,30.06,West,274,5.0,16.0,63,0.00,,---,0.01,VWS V14.01,2013-01-31 15:44:00,
2013-01-31 10:49:00,38.4,27.3,30.06,West,265,10.0,18.0,64,0.00,,---,0.01,VWS V14.01,2013-01-31 15:49:00,
2013-01-31 10:54:00,38.7,27.6,30.06,West,269,6.0,18.0,64,0.00,,---,0.01,VWS V14.01,2013-01-31 15:54:00,
2013-01-31 10:59:00,39.2,28.1,30.06,WNW,283,16.0,20.0,64,0.00,,---,0.01,VWS V14.01,2013-01-31 15:59:00,
2013-01-31 11:00:00,41.7,28.9,30.08,West,281,8.0,19.0,60,0.00,,---,0.01,VWS V14.01,2013-01-31 16:00:00,
2013-01-31 11:04:00,39.2,28.1,30.06,West,267,7.0,7.0,64,0.00,,---,0.01,VWS V14.01,2013-01-31 16:04:00,
2013-01-31 11:09:00,39.6,28.4,30.07,West,263,14.0,14.0,64,0.00,,---,0.01,VWS V14.01,2013-01-31 16:09:00,
2013-01-31 11:14:00,39.4,27.9,30.07,West,263,13.0,19.0,63,0.00,,---,0.01,VWS V14.01,2013-01-31 16:14:00,
2013-01-31 11:19:00,39.4,27.5,30.07,West,280,14.0,19.0,62,0.00,,---,0.01,VWS V14.01,2013-01-31 16:19:00,
2013-01-31 11:24:00,39.7,28.5,30.08,SW,231,4.0,19.0,64,0.00,,---,0.01,VWS V14.01,2013-01-31 16:24:00,
2013-01-31 11:26:00,40.0,28.4,30.08,WNW,282,2.0,19.0,63,0.00,,---,0.01,VWS V14.01,2013-01-31 16:26:00,
2013-01-31 11:29:00,39.9,28.3,30.08,West,281,6.0,19.0,63,0.00,,---,0.01,VWS V14.01,2013-01-31 16:29:00,
2013-01-31 11:30:00,42.3,27.7,30.09,West,265,22.0,25.0,56,0.00,,---,0.01,VWS V14.01,2013-01-31 16:30:00,
2013-01-31 12:00:00,43.4,27.9,30.10,WNW,300,10.0,24.0,54,0.00,,---,0.01,VWS V14.01,2013-01-31 17:00:00,
2013-01-31 12:02:00,40.0,28.4,30.08,WNW,282,2.0,19.0,63,0.00,,---,0.01,VWS V14.01,2013-01-31 17:02:00,
2013-01-31 12:07:00,42.0,28.3,30.08,West,267,8.0,23.0,58,0.00,,---,0.01,VWS V14.01,2013-01-31 17:07:00,
2013-01-31 12:12:00,41.6,27.5,30.09,West,266,18.0,25.0,57,0.00,,---,0.01,VWS V14.01,2013-01-31 17:12:00,
2013-01-31 12:17:00,41.4,27.8,30.09,West,274,16.0,25.0,58,0.00,,---,0.01,VWS V14.01,2013-01-31 17:17:00,
2013-01-31 12:22:00,41.5,27.8,30.09,West,271,5.0,25.0,58,0.00,,---,0.01,VWS V14.01,2013-01-31 17:22:00,
2013-01-31 12:27:00,42.4,28.7,30.09,West,273,10.0,25.0,58,0.00,,---,0.01,VWS V14.01,2013-01-31 17:27:00,
2013-01-31 12:30:00,43.8,27.8,30.08,West,263,10.0,21.0,53,0.00,,---,0.01,VWS V14.01,2013-01-31 17:30:00,
2013-01-31 12:32:00,42.4,27.8,30.09,West,275,18.0,25.0,56,0.00,,---,0.01,VWS V14.01,2013-01-31 17:32:00,
2013-01-31 12:37:00,42.0,27.9,30.10,West,269,10.0,22.0,57,0.00,,---,0.01,VWS V14.01,2013-01-31 17:37:00,
2013-01-31 12:42:00,42.2,28.1,30.10,West,271,5.0,22.0,57,0.00,,---,0.01,VWS V14.01,2013-01-31 17:42:00,
2013-01-31 12:47:00,42.9,29.2,30.09,West,277,12.0,22.0,58,0.00,,---,0.01,VWS V14.01,2013-01-31 17:47:00,
2013-01-31 12:52:00,43.5,28.9,30.10,West,265,15.0,22.0,56,0.00,,---,0.01,VWS V14.01,2013-01-31 17:52:00,
2013-01-31 12:57:00,43.2,28.6,30.10,West,271,4.0,24.0,56,0.00,,---,0.01,VWS V14.01,2013-01-31 17:57:00,
2013-01-31 13:00:00,45.8,26.2,30.09,WSW,258,13.0,28.0,46,0.00,,---,0.01,VWS V14.01,2013-01-31 18:00:00,
2013-01-31 13:02:00,43.4,28.3,30.09,West,278,9.0,24.0,55,0.00,,---,0.01,VWS V14.01,2013-01-31 18:02:00,
2013-01-31 13:07:00,43.2,28.1,30.09,SSW,211,3.0,13.0,55,0.00,,---,0.01,VWS V14.01,2013-01-31 18:07:00,
2013-01-31 13:15:00,43.3,28.2,30.09,SSW,209,0.0,13.0,55,0.00,,---,0.01,VWS V14.01,2013-01-31 18:15:00,
2013-01-31 13:20:00,44.3,28.7,30.08,West,273,4.0,14.0,54,0.00,,---,0.01,VWS V14.01,2013-01-31 18:20:00,
2013-01-31 13:25:00,43.7,27.7,30.07,West,265,14.0,21.0,53,0.00,,---,0.01,VWS V14.01,2013-01-31 18:25:00,
2013-01-31 13:30:00,43.7,27.7,30.08,West,266,10.0,21.0,53,0.00,,---,0.01,VWS V14.01,2013-01-31 18:30:00,
2013-01-31 13:35:00,43.8,27.8,30.08,West,271,10.0,17.0,53,0.00,,---,0.01,VWS V14.01,2013-01-31 18:35:00,
2013-01-31 13:40:00,43.9,27.9,30.08,WSW,244,4.0,20.0,53,0.00,,---,0.01,VWS V14.01,2013-01-31 18:40:00,
2013-01-31 13:45:00,44.4,27.9,30.08,WSW,256,5.0,20.0,52,0.00,,---,0.01,VWS V14.01,2013-01-31 18:45:00,
2013-01-31 13:50:00,45.2,28.2,30.08,West,275,5.0,20.0,51,0.00,,---,0.01,VWS V14.01,2013-01-31 18:50:00,
2013-01-31 13:55:00,45.5,27.5,30.09,West,273,5.0,20.0,49,0.00,,---,0.01,VWS V14.01,2013-01-31 18:55:00,
2013-01-31 14:00:00,45.9,27.8,30.09,WNW,290,11.0,20.0,49,0.00,,---,0.01,VWS V14.01,2013-01-31 19:00:00,
2013-01-31 14:05:00,45.4,25.9,30.09,West,268,11.0,20.0,46,0.00,,---,0.01,VWS V14.01,2013-01-31 19:05:00,
2013-01-31 14:10:00,44.8,25.8,30.10,West,268,17.0,22.0,47,0.00,,---,0.01,VWS V14.01,2013-01-31 19:10:00,
2013-01-31 14:15:00,44.6,26.1,30.09,West,265,15.0,30.0,48,0.00,,---,0.01,VWS V14.01,2013-01-31 19:15:00,
2013-01-31 14:20:00,45.4,26.4,30.09,West,273,10.0,30.0,47,0.00,,---,0.01,VWS V14.01,2013-01-31 19:20:00,
2013-01-31 14:25:00,46.4,27.8,30.09,West,272,10.0,30.0,48,0.00,,---,0.01,VWS V14.01,2013-01-31 19:25:00,
2013-01-31 14:30:00,46.6,28.0,30.09,WNW,292,3.0,30.0,48,0.00,,---,0.01,VWS V14.01,2013-01-31 19:30:00,
2013-01-31 14:35:00,47.3,27.6,30.09,West,277,10.0,10.0,46,0.00,,---,0.01,VWS V14.01,2013-01-31 19:35:00,
2013-01-31 14:40:00,47.7,28.5,30.09,West,259,2.0,14.0,47,0.00,,---,0.01,VWS V14.01,2013-01-31 19:40:00,
2013-01-31 14:45:00,47.9,27.6,30.09,West,273,10.0,15.0,45,0.00,,---,0.01,VWS V14.01,2013-01-31 19:45:00,
2013-01-31 14:50:00,47.8,27.5,30.09,West,272,3.0,15.0,45,0.00,,---,0.01,VWS V14.01,2013-01-31 19:50:00,
2013-01-31 14:55:00,47.7,26.9,30.09,West,264,7.0,15.0,44,0.00,,---,0.01,VWS V14.01,2013-01-31 19:55:00,
2013-01-31 15:00:00,47.6,26.8,30.09,West,274,5.0,18.0,44,0.00,,---,0.01,VWS V14.01,2013-01-31 20:00:00,
2013-01-31 15:05:00,47.6,26.2,30.09,NW,319,1.0,13.0,43,0.00,,---,0.01,VWS V14.01,2013-01-31 20:05:00,
2013-01-31 15:10:00,47.9,26.5,30.09,WSW,253,4.0,14.0,43,0.00,,---,0.01,VWS V14.01,2013-01-31 20:10:00,
2013-01-31 15:15:00,48.2,26.2,30.10,West,265,3.0,18.0,42,0.00,,---,0.01,VWS V14.01,2013-01-31 20:15:00,
2013-01-31 15:20:00,47.8,26.4,30.10,West,279,6.0,18.0,43,0.00,,---,0.01,VWS V14.01,2013-01-31 20:20:00,
2013-01-31 15:25:00,48.1,26.7,30.10,West,271,10.0,18.0,43,0.00,,---,0.01,VWS V14.01,2013-01-31 20:25:00,
2013-01-31 15:30:00,47.6,25.7,30.10,West,265,4.0,18.0,42,0.00,,---,0.01,VWS V14.01,2013-01-31 20:30:00,
2013-01-31 15:35:00,47.9,25.9,30.10,WNW,284,2.0,10.0,42,0.00,,---,0.01,VWS V14.01,2013-01-31 20:35:00,
2013-01-31 15:40:00,48.5,25.9,30.10,West,277,5.0,12.0,41,0.00,,---,0.01,VWS V14.01,2013-01-31 20:40:00,
2013-01-31 15:45:00,48.4,25.8,30.09,West,271,15.0,17.0,41,0.00,,---,0.01,VWS V14.01,2013-01-31 20:45:00,
2013-01-31 15:50:00,47.6,25.7,30.10,NNW,344,4.0,22.0,42,0.00,,---,0.01,VWS V14.01,2013-01-31 20:50:00,
2013-01-31 15:55:00,48.2,25.6,30.09,West,261,2.0,22.0,41,0.00,,---,0.01,VWS V14.01,2013-01-31 20:55:00,
2013-01-31 16:00:00,49.0,25.8,30.09,West,267,2.0,22.0,40,0.00,,---,0.01,VWS V14.01,2013-01-31 21:00:00,
2013-01-31 16:05:00,49.1,25.8,30.09,West,267,2.0,12.0,40,0.00,,---,0.01,VWS V14.01,2013-01-31 21:05:00,
2013-01-31 16:10:00,48.8,26.2,30.09,WNW,286,4.0,19.0,41,0.00,,---,0.01,VWS V14.01,2013-01-31 21:10:00,
2013-01-31 16:15:00,48.5,26.5,30.09,West,263,5.0,19.0,42,0.00,,---,0.01,VWS V14.01,2013-01-31 21:15:00,
2013-01-31 16:20:00,48.6,26.6,30.09,West,279,9.0,19.0,42,0.00,,---,0.01,VWS V14.01,2013-01-31 21:20:00,
2013-01-31 16:25:00,48.5,26.5,30.10,West,275,8.0,19.0,42,0.00,,---,0.01,VWS V14.01,2013-01-31 21:25:00,
2013-01-31 16:30:00,48.6,26.0,30.10,WNW,283,14.0,19.0,41,0.00,,---,0.01,VWS V14.01,2013-01-31 21:30:00,
2013-01-31 16:35:00,48.0,26.0,30.10,West,271,2.0,10.0,42,0.00,,---,0.01,VWS V14.01,2013-01-31 21:35:00,
2013-01-31 16:40:00,48.0,26.6,30.09,West,269,9.0,16.0,43,0.00,,---,0.01,VWS V14.01,2013-01-31 21:40:00,
2013-01-31 16:45:00,47.6,25.7,30.09,West,265,9.0,17.0,42,0.00,,---,0.01,VWS V14.01,2013-01-31 21:45:00,
2013-01-31 16:50:00,47.2,25.9,30.10,West,273,7.0,17.0,43,0.00,,---,0.01,VWS V14.01,2013-01-31 21:50:00,
2013-01-31 16:55:00,47.3,26.0,30.10,West,263,9.0,17.0,43,0.00,,---,0.01,VWS V14.01,2013-01-31 21:55:00,
2013-01-31 17:00:00,47.6,26.2,30.09,West,268,9.0,17.0,43,0.00,,---,0.01,VWS V14.01,2013-01-31 22:00:00,
2013-01-31 17:05:00,47.9,26.5,30.09,WNW,283,5.0,10.0,43,0.00,,---,0.01,VWS V14.01,2013-01-31 22:05:00,
2013-01-31 17:10:00,47.8,26.4,30.09,West,265,9.0,12.0,43,0.00,,---,0.01,VWS V14.01,2013-01-31 22:10:00,
2013-01-31 17:30:00,44.2,26.8,30.11,West,267,7.0,13.0,50,0.00,,---,0.01,VWS V14.01,2013-01-31 22:30:00,
2013-01-31 18:00:00,43.4,27.0,30.12,West,267,5.0,12.0,52,0.00,,---,0.01,VWS V14.01,2013-01-31 23:00:00,
2013-01-31 18:13:00,47.8,26.4,30.09,West,267,2.0,12.0,43,0.00,,---,0.01,VWS V14.01,2013-01-31 23:13:00,
2013-01-31 18:18:00,44.8,26.8,30.10,West,267,5.0,12.0,49,0.00,,---,0.01,VWS V14.01,2013-01-31 23:18:00,
2013-01-31 18:23:00,44.5,26.5,30.10,West,267,5.0,12.0,49,0.00,,---,0.01,VWS V14.01,2013-01-31 23:23:00,
2013-01-31 18:28:00,44.4,26.9,30.11,West,268,5.0,13.0,50,0.00,,---,0.01,VWS V14.01,2013-01-31 23:28:00,
2013-01-31 18:33:00,44.2,26.8,30.11,West,267,5.0,13.0,50,0.00,,---,0.01,VWS V14.01,2013-01-31 23:33:00,
2013-01-31 18:38:00,44.0,27.0,30.12,West,268,4.0,9.0,51,0.00,,---,0.01,VWS V14.01,2013-01-31 23:38:00,
2013-01-31 18:43:00,43.8,26.9,30.12,West,269,10.0,10.0,51,0.00,,---,0.01,VWS V14.01,2013-01-31 23:43:00,
2013-01-31 18:48:00,43.7,26.8,30.12,West,267,4.0,12.0,51,0.00,,---,0.01,VWS V14.01,2013-01-31 23:48:00,
2013-01-31 18:53:00,43.6,27.1,30.12,West,267,7.0,12.0,52,0.00,,---,0.01,VWS V14.01,2013-01-31 23:53:00,
2013-01-31 18:58:00,43.5,27.1,30.12,West,268,3.0,12.0,52,0.00,,---,0.01,VWS V14.01,2013-01-31 23:58:00,
2013-01-31 19:00:00,40.9,27.7,30.14,West,267,1.0,9.0,59,0.00,,---,0.01,VWS V14.01,2013-02-01 00:00:00,
2013-01-31 19:03:00,43.4,27.0,30.12,West,268,5.0,12.0,52,0.00,,---,0.01,VWS V14.01,2013-02-01 00:03:00,
2013-01-31 19:08:00,43.2,26.8,30.12,West,268,4.0,9.0,52,0.00,,---,0.01,VWS V14.01,2013-02-01 00:08:00,
2013-01-31 19:13:00,43.0,27.0,30.12,West,268,3.0,9.0,53,0.00,,---,0.01,VWS V14.01,2013-02-01 00:13:00,
2013-01-31 19:18:00,42.8,27.3,30.12,West,267,3.0,9.0,54,0.00,,---,0.01,VWS V14.01,2013-02-01 00:18:00,
2013-01-31 19:21:00,42.4,27.4,30.12,West,267,4.0,9.0,55,0.00,,---,0.01,VWS V14.01,2013-02-01 00:21:00,
2013-01-31 19:23:00,42.5,27.0,30.12,West,267,4.0,9.0,54,0.00,,---,0.01,VWS V14.01,2013-02-01 00:23:00,
2013-01-31 19:30:00,39.2,28.1,30.14,West,267,0.0,3.0,64,0.00,,---,0.01,VWS V14.01,2013-02-01 00:30:00,
2013-01-31 19:50:00,42.4,27.4,30.12,West,267,4.0,9.0,55,0.00,,---,0.01,VWS V14.01,2013-02-01 00:50:00,
2013-01-31 19:55:00,41.4,27.8,30.14,West,267,3.0,9.0,58,0.00,,---,0.01,VWS V14.01,2013-02-01 00:55:00,
2013-01-31 20:00:00,41.2,28.0,30.14,West,267,1.0,9.0,59,0.00,,---,0.01,VWS V14.01,2013-02-01 01:00:00,
2013-01-31 20:05:00,40.9,28.1,30.14,West,267,1.0,2.0,60,0.00,,---,0.01,VWS V14.01,2013-02-01 01:05:00,
2013-01-31 20:10:00,40.6,27.8,30.14,West,267,0.0,3.0,60,0.00,,---,0.01,VWS V14.01,2013-02-01 01:10:00,
2013-01-31 20:15:00,40.4,28.0,30.14,West,267,1.0,3.0,61,0.00,,---,0.01,VWS V14.01,2013-02-01 01:15:00,
2013-01-31 20:20:00,40.2,28.6,30.13,West,267,1.0,3.0,63,0.00,,---,0.01,VWS V14.01,2013-02-01 01:20:00,
2013-01-31 20:25:00,39.8,28.2,30.14,West,267,0.0,3.0,63,0.00,,---,0.01,VWS V14.01,2013-02-01 01:25:00,
2013-01-31 20:30:00,39.5,28.0,30.14,West,267,0.0,3.0,63,0.00,,---,0.01,VWS V14.01,2013-02-01 01:30:00,
2013-01-31 20:35:00,39.1,28.3,30.14,West,267,0.0,0.0,65,0.00,,---,0.01,VWS V14.01,2013-02-01 01:35:00,
2013-01-31 20:40:00,38.6,28.6,30.14,West,267,1.0,1.0,67,0.00,,---,0.01,VWS V14.01,2013-02-01 01:40:00,
2013-01-31 20:45:00,38.1,28.5,30.14,West,267,0.0,1.0,68,0.00,,---,0.01,VWS V14.01,2013-02-01 01:45:00,
2013-01-31 20:50:00,37.9,28.6,30.14,West,267,0.0,1.0,69,0.00,,---,0.01,VWS V14.01,2013-02-01 01:50:00,
2013-01-31 20:55:00,37.5,28.3,30.15,West,267,0.0,1.0,69,0.00,,---,0.01,VWS V14.01,2013-02-01 01:55:00,
2013-01-31 21:00:00,37.3,28.4,30.15,West,267,0.0,1.0,70,0.00,,---,0.01,VWS V14.01,2013-02-01 02:00:00,
2013-01-31 21:05:00,36.9,28.0,30.15,West,267,0.0,0.0,70,0.00,,---,0.01,VWS V14.01,2013-02-01 02:05:00,
2013-01-31 21:19:00,36.5,28.0,30.15,West,267,0.0,1.0,71,0.00,,---,0.01,VWS V14.01,2013-02-01 02:19:00,
2013-01-31 21:24:00,35.9,28.4,30.15,West,267,0.0,1.0,74,0.00,,---,0.01,VWS V14.01,2013-02-01 02:24:00,
2013-01-31 21:29:00,35.6,28.1,30.16,West,267,0.0,1.0,74,0.00,,---,0.01,VWS V14.01,2013-02-01 02:29:00,
2013-01-31 21:30:00,34.4,28.3,30.16,West,267,0.0,2.0,78,0.00,,---,0.01,VWS V14.01,2013-02-01 02:30:00,
2013-01-31 21:34:00,35.2,28.1,30.16,West,267,0.0,0.0,75,0.00,,---,0.01,VWS V14.01,2013-02-01 02:34:00,
2013-01-31 21:39:00,34.9,28.1,30.16,West,267,0.0,0.0,76,0.00,,---,0.01,VWS V14.01,2013-02-01 02:39:00,
2013-01-31 21:44:00,34.7,27.9,30.16,West,267,1.0,2.0,76,0.00,,---,0.01,VWS V14.01,2013-02-01 02:44:00,
2013-01-31 21:49:00,34.5,28.0,30.16,West,267,0.0,2.0,77,0.00,,---,0.01,VWS V14.01,2013-02-01 02:49:00,
2013-01-31 21:54:00,34.3,27.9,30.16,West,267,0.0,2.0,77,0.00,,---,0.01,VWS V14.01,2013-02-01 02:54:00,
2013-01-31 21:59:00,34.1,28.3,30.15,West,267,0.0,2.0,79,0.00,,---,0.01,VWS V14.01,2013-02-01 02:59:00,
2013-01-31 22:00:00,38.4,28.0,30.16,West,268,3.0,10.0,66,0.00,,---,0.01,VWS V14.01,2013-02-01 03:00:00,
2013-01-31 22:04:00,33.9,28.4,30.16,West,267,1.0,2.0,80,0.00,,---,0.01,VWS V14.01,2013-02-01 03:04:00,
2013-01-31 22:09:00,33.7,28.2,30.16,West,267,2.0,2.0,80,0.00,,---,0.01,VWS V14.01,2013-02-01 03:09:00,
2013-01-31 22:14:00,33.3,28.1,30.15,West,267,0.0,2.0,81,0.00,,---,0.01,VWS V14.01,2013-02-01 03:14:00,
2013-01-31 22:19:00,33.2,28.0,30.15,West,267,0.0,2.0,81,0.00,,---,0.01,VWS V14.01,2013-02-01 03:19:00,
2013-01-31 22:24:00,33.1,27.9,30.15,West,267,0.0,2.0,81,0.00,,---,0.01,VWS V14.01,2013-02-01 03:24:00,
2013-01-31 22:29:00,33.5,27.7,30.15,West,267,0.0,2.0,79,0.00,,---,0.01,VWS V14.01,2013-02-01 03:29:00,
2013-01-31 22:34:00,34.4,28.3,30.16,West,267,1.0,2.0,78,0.00,,---,0.01,VWS V14.01,2013-02-01 03:34:00,
2013-01-31 22:39:00,35.6,28.5,30.15,West,267,2.0,5.0,75,0.00,,---,0.01,VWS V14.01,2013-02-01 03:39:00,
2013-01-31 22:44:00,36.5,28.4,30.16,West,267,5.0,5.0,72,0.00,,---,0.01,VWS V14.01,2013-02-01 03:44:00,
2013-01-31 22:49:00,37.3,28.4,30.16,West,267,2.0,5.0,70,0.00,,---,0.01,VWS V14.01,2013-02-01 03:49:00,
2013-01-31 22:54:00,37.7,28.1,30.16,West,267,3.0,6.0,68,0.00,,---,0.01,VWS V14.01,2013-02-01 03:54:00,
2013-01-31 22:59:00,38.1,28.1,30.16,West,267,3.0,6.0,67,0.00,,---,0.01,VWS V14.01,2013-02-01 03:59:00,
2013-01-31 23:04:00,38.4,28.0,30.16,West,268,1.0,3.0,66,0.00,,---,0.01,VWS V14.01,2013-02-01 04:04:00,
2013-01-31 23:09:00,38.5,28.1,30.16,West,268,4.0,7.0,66,0.00,,---,0.01,VWS V14.01,2013-02-01 04:09:00,
2013-01-31 23:14:00,38.7,28.0,30.16,West,268,2.0,7.0,65,0.00,,---,0.01,VWS V14.01,2013-02-01 04:14:00,
2013-01-31 23:19:00,38.8,28.1,30.16,West,268,3.0,7.0,65,0.00,,---,0.01,VWS V14.01,2013-02-01 04:19:00,
2013-01-31 23:24:00,38.7,28.0,30.16,West,268,3.0,7.0,65,0.00,,---,0.01,VWS V14.01,2013-02-01 04:24:00,
2013-01-31 23:30:00,38.2,28.2,30.15,West,268,3.0,7.0,67,0.00,,---,0.00,VWS V14.01,2013-02-01 04:30:00,